createdAt,value
2023-04-25T00:00:18.640Z,100.00
2023-04-25T00:02:45.424Z,100.00
2023-04-25T00:05:13.189Z,100.00
2023-04-25T00:07:53.599Z,100.00
2023-04-25T00:10:21.510Z,100.00
2023-04-25T00:12:48.846Z,100.00
2023-04-25T00:15:16.004Z,100.00
2023-04-25T00:17:43.525Z,100.00
2023-04-25T00:20:11.392Z,100.00
2023-04-25T00:22:38.534Z,100.00
2023-04-25T00:25:07.374Z,100.00
2023-04-25T00:27:34.122Z,100.00
2023-04-25T00:30:01.221Z,100.00
2023-04-25T00:32:28.003Z,100.00
2023-04-25T00:34:57.435Z,100.00
2023-04-25T00:37:24.154Z,100.00
2023-04-25T00:39:51.742Z,100.00
2023-04-25T00:42:18.696Z,100.00
2023-04-25T00:44:46.721Z,100.00
2023-04-25T00:47:14.676Z,100.00
2023-04-25T00:49:41.344Z,100.00
2023-04-25T00:52:08.325Z,100.00
2023-04-25T00:54:35.405Z,100.00
2023-04-25T00:57:02.615Z,100.00
2023-04-25T00:59:30.890Z,100.00
2023-04-25T01:01:58.113Z,100.00
2023-04-25T01:04:25.294Z,100.00
2023-04-25T01:06:52.893Z,100.00
2023-04-25T01:09:20.860Z,100.00
2023-04-25T01:11:47.619Z,100.00
2023-04-25T01:14:14.497Z,100.00
2023-04-25T01:16:41.211Z,100.00
2023-04-25T01:19:13.355Z,100.00
2023-04-25T01:21:41.040Z,100.00
2023-04-25T01:24:08.748Z,100.00
2023-04-25T01:26:36.439Z,100.00
2023-04-25T01:29:04.739Z,100.00
2023-04-25T01:31:33.464Z,100.00
2023-04-25T01:34:00.181Z,100.00
2023-04-25T01:36:28.144Z,100.00
2023-04-25T01:38:54.967Z,100.00
2023-04-25T01:41:24.411Z,100.00
2023-04-25T01:43:51.502Z,100.00
2023-04-25T01:46:18.495Z,100.00
2023-04-25T01:48:45.640Z,100.00
2023-04-25T01:51:12.694Z,100.00
2023-04-25T01:53:40.703Z,100.00
2023-04-25T01:56:07.896Z,100.00
2023-04-25T01:58:35.654Z,100.00
2023-04-25T02:01:02.654Z,100.00
2023-04-25T02:03:30.627Z,100.00
2023-04-25T02:05:57.284Z,100.00
2023-04-25T02:08:24.019Z,100.00
2023-04-25T02:10:51.295Z,100.00
2023-04-25T02:13:17.979Z,100.00
2023-04-25T02:15:45.030Z,100.00
2023-04-25T02:18:12.228Z,100.00
2023-04-25T02:20:39.309Z,100.00
2023-04-25T02:23:06.574Z,100.00
2023-04-25T02:25:33.391Z,100.00
2023-04-25T02:28:00.187Z,100.00
2023-04-25T02:30:26.867Z,100.00
2023-04-25T02:32:53.594Z,100.00
2023-04-25T02:35:20.701Z,100.00
2023-04-25T02:37:47.295Z,100.00
2023-04-25T02:40:14.557Z,100.00
2023-04-25T02:42:41.234Z,100.00
2023-04-25T02:45:08.462Z,100.00
2023-04-25T02:47:35.135Z,100.00
2023-04-25T02:50:01.889Z,100.00
2023-04-25T02:52:28.955Z,100.00
2023-04-25T02:54:55.579Z,100.00
2023-04-25T02:57:22.532Z,100.00
2023-04-25T02:59:49.337Z,100.00
2023-04-25T03:02:16.035Z,100.00
2023-04-25T03:04:42.847Z,100.00
2023-04-25T03:07:09.864Z,100.00
2023-04-25T03:09:36.590Z,100.00
2023-04-25T03:12:03.996Z,100.00
2023-04-25T03:14:30.854Z,100.00
2023-04-25T03:16:57.804Z,100.00
2023-04-25T03:19:24.502Z,100.00
2023-04-25T03:21:51.637Z,100.00
2023-04-25T03:24:18.262Z,100.00
2023-04-25T03:26:44.898Z,100.00
2023-04-25T03:29:11.535Z,100.00
2023-04-25T03:31:38.894Z,100.00
2023-04-25T03:34:05.808Z,100.00
2023-04-25T03:36:33.752Z,100.00
2023-04-25T03:39:00.599Z,100.00
2023-04-25T03:41:27.558Z,100.00
2023-04-25T03:43:54.147Z,100.00
2023-04-25T03:46:21.019Z,100.00
2023-04-25T03:48:47.675Z,100.00
2023-04-25T03:51:14.530Z,100.00
2023-04-25T03:53:41.085Z,100.00
2023-04-25T03:56:07.994Z,100.00
2023-04-25T03:58:34.802Z,100.00
2023-04-25T04:01:04.114Z,100.00
2023-04-25T04:03:31.190Z,100.00
2023-04-25T04:05:58.818Z,100.00
2023-04-25T04:08:25.802Z,100.00
2023-04-25T04:10:52.413Z,100.00
2023-04-25T04:13:18.970Z,100.00
2023-04-25T04:15:45.958Z,100.00
2023-04-25T04:18:12.571Z,100.00
2023-04-25T04:20:39.214Z,100.00
2023-04-25T04:23:06.540Z,100.00
2023-04-25T04:25:33.236Z,100.00
2023-04-25T04:28:00.130Z,100.00
2023-04-25T04:30:26.787Z,100.00
2023-04-25T04:32:53.576Z,100.00
2023-04-25T04:35:20.446Z,100.00
2023-04-25T04:37:47.032Z,100.00
2023-04-25T04:40:16.491Z,100.00
2023-04-25T04:42:43.867Z,100.00
2023-04-25T04:45:11.326Z,100.00
2023-04-25T04:47:38.558Z,100.00
2023-04-25T04:50:05.432Z,100.00
2023-04-25T04:52:32.048Z,100.00
2023-04-25T04:54:58.653Z,100.00
2023-04-25T04:57:25.827Z,100.00
2023-04-25T04:59:52.574Z,100.00
2023-04-25T05:02:19.246Z,100.00
2023-04-25T05:04:46.159Z,100.00
2023-04-25T05:07:12.808Z,100.00
2023-04-25T05:09:39.428Z,100.00
2023-04-25T05:12:06.357Z,100.00
2023-04-25T05:14:33.024Z,100.00
2023-04-25T05:16:59.743Z,100.00
2023-04-25T05:19:26.420Z,100.00
2023-04-25T05:21:53.471Z,100.00
2023-04-25T05:24:20.081Z,100.00
2023-04-25T05:26:46.697Z,100.00
2023-04-25T05:29:13.328Z,100.00
2023-04-25T05:31:39.974Z,100.00
2023-04-25T05:34:06.699Z,100.00
2023-04-25T05:36:33.804Z,100.00
2023-04-25T05:39:00.506Z,100.00
2023-04-25T05:41:27.098Z,100.00
2023-04-25T05:43:56.251Z,100.00
2023-04-25T05:46:24.482Z,100.00
2023-04-25T05:48:51.192Z,100.00
2023-04-25T05:51:19.474Z,100.00
2023-04-25T05:53:46.270Z,100.00
2023-04-25T05:56:12.877Z,100.00
2023-04-25T05:58:39.793Z,100.00
2023-04-25T06:01:06.464Z,100.00
2023-04-25T06:03:33.314Z,100.00
2023-04-25T06:06:00.078Z,100.00
2023-04-25T06:08:26.726Z,100.00
2023-04-25T06:10:53.371Z,100.00
2023-04-25T06:13:20.002Z,100.00
2023-04-25T06:15:46.604Z,100.00
2023-04-25T06:18:13.321Z,100.00
2023-04-25T06:20:41.422Z,100.00
2023-04-25T06:23:08.224Z,100.00
2023-04-25T06:25:34.834Z,100.00
2023-04-25T06:28:01.600Z,100.00
2023-04-25T06:30:28.343Z,100.00
2023-04-25T06:32:55.046Z,100.00
2023-04-25T06:35:22.075Z,100.00
2023-04-25T06:37:48.799Z,100.00
2023-04-25T06:40:15.956Z,100.00
2023-04-25T06:42:42.663Z,100.00
2023-04-25T06:45:09.592Z,100.00
2023-04-25T06:47:36.282Z,100.00
2023-04-25T06:50:03.420Z,100.00
2023-04-25T06:52:30.036Z,100.00
2023-04-25T06:54:56.583Z,100.00
2023-04-25T06:57:23.144Z,100.00
2023-04-25T06:59:49.730Z,100.00
2023-04-25T07:02:16.364Z,100.00
2023-04-25T07:04:43.149Z,100.00
2023-04-25T07:07:09.904Z,100.00
2023-04-25T07:09:36.540Z,100.00
2023-04-25T07:12:03.785Z,100.00
2023-04-25T07:14:30.424Z,100.00
2023-04-25T07:16:58.054Z,100.00
2023-04-25T07:19:30.690Z,100.00
2023-04-25T07:21:57.314Z,100.00
2023-04-25T07:24:23.892Z,100.00
2023-04-25T07:26:51.024Z,100.00
2023-04-25T07:29:17.694Z,100.00
2023-04-25T07:31:44.326Z,100.00
2023-04-25T07:34:11.113Z,100.00
2023-04-25T07:36:37.668Z,100.00
2023-04-25T07:39:04.333Z,100.00
2023-04-25T07:41:30.944Z,100.00
2023-04-25T07:43:57.522Z,100.00
2023-04-25T07:46:24.336Z,100.00
2023-04-25T07:48:51.208Z,100.00
2023-04-25T07:51:18.060Z,100.00
2023-04-25T07:53:44.688Z,100.00
2023-04-25T07:56:11.266Z,100.00
2023-04-25T07:58:37.870Z,100.00
2023-04-25T08:01:04.749Z,100.00
2023-04-25T08:03:31.624Z,100.00
2023-04-25T08:05:58.608Z,100.00
2023-04-25T08:08:26.023Z,100.00
2023-04-25T08:10:52.624Z,100.00
2023-04-25T08:13:19.213Z,100.00
2023-04-25T08:15:46.001Z,100.00
2023-04-25T08:18:12.778Z,100.00
2023-04-25T08:20:40.007Z,100.00
2023-04-25T08:23:06.624Z,90.80
2023-04-25T08:25:33.209Z,88.12
2023-04-25T08:28:00.670Z,83.13
2023-04-25T08:30:28.164Z,80.37
2023-04-25T08:32:54.855Z,77.25
2023-04-25T08:35:21.888Z,79.79
2023-04-25T08:37:50.168Z,78.09
2023-04-25T08:40:17.014Z,76.97
2023-04-25T08:42:43.915Z,72.58
2023-04-25T08:45:11.335Z,72.19
2023-04-25T08:47:40.857Z,69.61
2023-04-25T08:50:08.375Z,73.02
2023-04-25T08:52:44.838Z,71.04
2023-04-25T08:55:13.755Z,68.42
2023-04-25T08:57:43.853Z,67.88
2023-04-25T09:00:13.338Z,66.38
2023-04-25T09:02:40.520Z,60.74
2023-04-25T09:05:07.819Z,59.70
2023-04-25T09:07:34.786Z,60.36
2023-04-25T09:10:03.431Z,60.76
2023-04-25T09:12:31.732Z,55.97
2023-04-25T09:15:10.142Z,55.68
2023-04-25T09:17:41.375Z,55.78
2023-04-25T09:20:12.871Z,54.57
2023-04-25T09:22:39.957Z,55.32
2023-04-25T09:25:11.791Z,54.47
2023-04-25T09:27:51.692Z,52.48
2023-04-25T09:30:18.459Z,53.55
2023-04-25T09:32:46.347Z,54.22
2023-04-25T09:35:24.780Z,53.89
2023-04-25T09:37:51.740Z,54.31
2023-04-25T09:40:19.444Z,54.99
2023-04-25T09:42:46.094Z,57.02
2023-04-25T09:45:16.595Z,56.52
2023-04-25T09:47:45.106Z,58.09
2023-04-25T09:50:16.982Z,60.16
2023-04-25T09:52:44.129Z,57.67
2023-04-25T09:55:10.794Z,58.76
2023-04-25T09:57:40.840Z,57.66
2023-04-25T10:00:12.164Z,56.08
2023-04-25T10:02:41.194Z,55.05
2023-04-25T10:05:09.633Z,54.93
2023-04-25T10:07:39.257Z,54.82
2023-04-25T10:10:07.104Z,53.92
2023-04-25T10:12:34.688Z,54.80
2023-04-25T10:15:02.465Z,55.01
2023-04-25T10:17:29.527Z,53.91
2023-04-25T10:19:56.558Z,53.19
2023-04-25T10:22:36.991Z,53.82
2023-04-25T10:25:05.294Z,52.19
2023-04-25T10:27:32.786Z,52.73
2023-04-25T10:30:16.315Z,52.28
2023-04-25T10:32:44.169Z,50.70
2023-04-25T10:35:19.364Z,50.76
2023-04-25T10:38:03.920Z,50.64
2023-04-25T10:40:31.051Z,51.78
2023-04-25T10:43:32.732Z,50.83
2023-04-25T10:46:03.519Z,50.53
2023-04-25T10:48:31.610Z,51.97
2023-04-25T10:51:10.979Z,51.38
2023-04-25T10:53:38.189Z,49.89
2023-04-25T10:56:32.648Z,49.72
2023-04-25T10:59:08.429Z,50.15
2023-04-25T11:01:43.120Z,49.95
2023-04-25T11:04:33.108Z,51.39
2023-04-25T11:09:52.651Z,50.68
2023-04-25T11:12:19.384Z,52.62
2023-04-25T11:14:46.701Z,52.77
2023-04-25T11:17:13.375Z,52.62
2023-04-25T11:19:40.055Z,52.89
2023-04-25T11:22:07.829Z,53.12
2023-04-25T11:24:36.136Z,53.49
2023-04-25T11:27:04.067Z,55.25
2023-04-25T11:29:32.131Z,55.08
2023-04-25T11:31:59.473Z,56.34
2023-04-25T11:34:27.071Z,52.60
2023-04-25T11:36:54.612Z,52.00
2023-04-25T11:39:22.409Z,51.33
2023-04-25T11:41:49.072Z,52.04
2023-04-25T11:44:20.086Z,50.44
2023-04-25T11:46:47.613Z,48.77
2023-04-25T11:49:15.878Z,48.37
2023-04-25T11:51:49.554Z,47.89
2023-04-25T11:54:16.700Z,47.24
2023-04-25T11:56:44.510Z,48.40
2023-04-25T11:59:11.607Z,48.97
2023-04-25T12:01:41.036Z,48.48
2023-04-25T12:04:14.982Z,48.81
2023-04-25T12:06:43.499Z,50.10
2023-04-25T12:09:12.336Z,50.26
2023-04-25T12:12:04.137Z,50.05
2023-04-25T12:14:33.379Z,48.49
2023-04-25T12:17:02.149Z,45.72
2023-04-25T12:19:36.779Z,46.76
2023-04-25T12:22:04.952Z,46.12
2023-04-25T12:24:38.723Z,45.75
2023-04-25T12:27:09.354Z,46.07
2023-04-25T12:29:48.581Z,46.17
2023-04-25T12:32:16.631Z,45.72
2023-04-25T12:34:43.618Z,46.76
2023-04-25T12:37:10.500Z,44.57
2023-04-25T12:39:37.397Z,45.41
2023-04-25T12:42:06.167Z,45.63
2023-04-25T12:44:35.170Z,47.34
2023-04-25T12:47:02.227Z,47.49
2023-04-25T12:49:28.935Z,48.35
2023-04-25T12:51:55.667Z,49.01
2023-04-25T12:54:22.349Z,50.43
2023-04-25T12:56:48.990Z,50.22
2023-04-25T12:59:15.575Z,49.80
2023-04-25T13:01:42.319Z,47.58
2023-04-25T13:04:09.077Z,47.87
2023-04-25T13:06:35.939Z,48.90
2023-04-25T13:09:02.877Z,49.29
2023-04-25T13:13:57.027Z,49.71
2023-04-25T13:16:23.708Z,48.56
2023-04-25T13:18:50.323Z,50.22
2023-04-25T13:21:17.094Z,47.44
2023-04-25T13:23:44.089Z,45.34
2023-04-25T13:26:11.277Z,44.91
2023-04-25T13:28:37.932Z,46.15
2023-04-25T13:31:04.520Z,45.95
2023-04-25T13:33:31.266Z,45.84
2023-04-25T13:35:58.521Z,44.60
2023-04-25T13:38:26.683Z,45.46
2023-04-25T13:40:54.367Z,44.93
2023-04-25T13:43:22.894Z,45.27
2023-04-25T13:45:51.046Z,45.99
2023-04-25T13:48:18.743Z,46.80
2023-04-25T13:50:46.122Z,47.38
2023-04-25T13:53:13.098Z,49.50
2023-04-25T13:55:39.906Z,48.70
2023-04-25T13:58:11.045Z,49.85
2023-04-25T14:00:40.230Z,50.90
2023-04-25T14:03:09.000Z,51.01
2023-04-25T14:05:40.217Z,51.68
2023-04-25T14:08:08.212Z,52.49
2023-04-25T14:10:35.708Z,53.26
2023-04-25T14:13:04.159Z,53.75
2023-04-25T14:15:33.609Z,55.01
2023-04-25T14:18:01.294Z,55.97
2023-04-25T14:20:28.303Z,55.62
2023-04-25T14:22:57.041Z,55.79
2023-04-25T14:25:24.341Z,55.75
2023-04-25T14:27:51.128Z,55.67
2023-04-25T14:30:19.198Z,55.82
2023-04-25T14:32:46.634Z,55.54
2023-04-25T14:35:13.657Z,56.42
2023-04-25T14:37:40.532Z,56.82
2023-04-25T14:40:09.787Z,57.05
2023-04-25T14:42:36.645Z,55.71
2023-04-25T14:45:08.377Z,55.00
2023-04-25T14:47:37.085Z,55.60
2023-04-25T14:50:04.246Z,56.33
2023-04-25T14:52:31.650Z,52.84
2023-04-25T14:54:58.304Z,54.95
2023-04-25T14:57:24.935Z,55.10
2023-04-25T14:59:51.703Z,55.45
2023-04-25T15:02:18.680Z,54.50
2023-04-25T15:04:45.493Z,55.78
2023-04-25T15:07:12.166Z,55.75
2023-04-25T15:09:38.728Z,57.80
2023-04-25T15:12:05.547Z,57.93
2023-04-25T15:14:32.263Z,56.16
2023-04-25T15:16:58.962Z,56.03
2023-04-25T15:19:25.880Z,55.80
2023-04-25T15:21:52.655Z,56.61
2023-04-25T15:24:19.455Z,56.07
2023-04-25T15:26:46.974Z,58.34
2023-04-25T15:29:13.570Z,57.36
2023-04-25T15:31:40.294Z,56.76
2023-04-25T15:34:07.105Z,56.22
2023-04-25T15:36:33.697Z,55.32
2023-04-25T15:39:00.306Z,54.31
2023-04-25T15:41:26.993Z,55.26
2023-04-25T15:43:54.869Z,56.92
2023-04-25T15:46:24.510Z,55.39
2023-04-25T15:48:51.148Z,57.05
2023-04-25T15:51:17.746Z,56.12
2023-04-25T15:53:44.414Z,54.77
2023-04-25T15:56:11.294Z,55.50
2023-04-25T15:58:38.093Z,56.61
2023-04-25T16:01:05.180Z,55.49
2023-04-25T16:03:34.502Z,55.71
2023-04-25T16:06:03.251Z,55.47
2023-04-25T16:08:30.013Z,56.05
2023-04-25T16:10:57.417Z,55.80
2023-04-25T16:13:24.057Z,57.12
2023-04-25T16:15:50.835Z,57.32
2023-04-25T16:18:17.928Z,57.81
2023-04-25T16:20:44.996Z,56.76
2023-04-25T16:23:11.790Z,58.45
2023-04-25T16:25:38.539Z,57.87
2023-04-25T16:28:05.521Z,58.40
2023-04-25T16:30:32.291Z,59.72
2023-04-25T16:32:59.035Z,60.74
2023-04-25T16:35:25.828Z,61.28
2023-04-25T16:37:52.443Z,62.34
2023-04-25T16:40:19.175Z,62.49
2023-04-25T16:42:46.209Z,63.13
2023-04-25T16:45:14.124Z,62.63
2023-04-25T16:47:40.850Z,63.83
2023-04-25T16:50:08.378Z,61.42
2023-04-25T16:52:34.963Z,60.94
2023-04-25T16:55:01.571Z,60.31
2023-04-25T16:57:28.234Z,60.40
2023-04-25T16:59:54.824Z,58.91
2023-04-25T17:02:21.522Z,60.46
2023-04-25T17:04:48.196Z,59.21
2023-04-25T17:07:15.968Z,58.33
2023-04-25T17:09:42.643Z,60.15
2023-04-25T17:12:09.335Z,57.78
2023-04-25T17:14:37.182Z,58.69
2023-04-25T17:17:03.991Z,58.88
2023-04-25T17:19:31.725Z,59.18
2023-04-25T17:21:58.503Z,59.62
2023-04-25T17:24:25.212Z,59.02
2023-04-25T17:26:51.938Z,59.61
2023-04-25T17:29:19.312Z,59.26
2023-04-25T17:31:46.423Z,59.84
2023-04-25T17:34:17.926Z,60.29
2023-04-25T17:36:45.468Z,62.03
2023-04-25T17:39:12.130Z,60.41
2023-04-25T17:41:38.763Z,60.94
2023-04-25T17:44:05.514Z,62.09
2023-04-25T17:46:32.368Z,64.69
2023-04-25T17:48:58.989Z,64.38
2023-04-25T17:51:26.423Z,65.44
2023-04-25T17:53:53.104Z,65.55
2023-04-25T17:56:27.181Z,64.78
2023-04-25T17:58:54.678Z,67.09
2023-04-25T18:01:21.799Z,65.90
2023-04-25T18:03:49.919Z,68.02
2023-04-25T18:06:18.435Z,68.25
2023-04-25T18:08:45.482Z,67.89
2023-04-25T18:11:12.340Z,68.38
2023-04-25T18:13:39.781Z,69.84
2023-04-25T18:16:07.104Z,69.78
2023-04-25T18:18:36.109Z,70.64
2023-04-25T18:21:05.375Z,70.03
2023-04-25T18:23:34.195Z,70.08
2023-04-25T18:26:04.789Z,71.76
2023-04-25T18:28:34.377Z,75.47
2023-04-25T18:31:01.364Z,71.25
2023-04-25T18:33:27.973Z,72.23
2023-04-25T18:35:59.380Z,73.86
2023-04-25T18:41:02.775Z,75.20
2023-04-25T18:43:37.076Z,75.00
2023-04-25T18:46:03.767Z,75.56
2023-04-25T18:48:30.795Z,74.07
2023-04-25T18:50:57.767Z,73.45
2023-04-25T18:53:24.395Z,71.51
2023-04-25T18:55:51.212Z,70.79
2023-04-25T18:58:17.808Z,72.19
2023-04-25T19:00:44.398Z,71.24
2023-04-25T19:03:11.125Z,71.57
2023-04-25T19:05:38.189Z,72.25
2023-04-25T19:08:05.121Z,74.48
2023-04-25T19:10:31.875Z,72.47
2023-04-25T19:12:58.476Z,71.83
2023-04-25T19:15:25.192Z,71.90
2023-04-25T19:17:52.318Z,73.47
2023-04-25T19:20:20.762Z,73.24
2023-04-25T19:22:48.365Z,73.67
2023-04-25T19:25:15.163Z,75.08
2023-04-25T19:27:42.319Z,74.68
2023-04-25T19:30:10.176Z,74.00
2023-04-25T19:32:38.431Z,74.39
2023-04-25T19:35:05.514Z,75.93
2023-04-25T19:37:32.202Z,75.01
2023-04-25T19:39:58.843Z,75.04
2023-04-25T19:42:26.038Z,73.53
2023-04-25T19:44:52.767Z,73.64
2023-04-25T19:47:19.406Z,75.60
2023-04-25T19:49:46.061Z,74.75
2023-04-25T19:52:16.307Z,76.10
2023-04-25T19:54:43.064Z,76.20
2023-04-25T19:57:09.613Z,76.31
2023-04-25T19:59:36.389Z,76.96
2023-04-25T20:02:06.240Z,78.56
2023-04-25T20:04:33.383Z,78.48
2023-04-25T20:07:00.754Z,78.63
2023-04-25T20:09:27.492Z,80.48
2023-04-25T20:11:54.373Z,82.52
2023-04-25T20:14:21.823Z,82.61
2023-04-25T20:16:48.428Z,83.48
2023-04-25T20:19:15.044Z,84.12
2023-04-25T20:21:41.843Z,83.79
2023-04-25T20:24:08.657Z,85.43
2023-04-25T20:26:35.663Z,87.55
2023-04-25T20:29:02.288Z,90.28
2023-04-25T20:31:29.932Z,89.80
2023-04-25T20:33:56.621Z,90.22
2023-04-25T20:36:23.537Z,93.01
2023-04-25T20:38:50.349Z,96.72
2023-04-25T20:41:17.162Z,97.27
2023-04-25T20:43:43.866Z,99.81
2023-04-25T20:46:10.636Z,100.00
2023-04-25T20:48:37.389Z,100.00
2023-04-25T20:51:04.136Z,98.55
2023-04-25T20:53:30.736Z,100.00
2023-04-25T20:55:57.537Z,94.72
2023-04-25T20:58:25.131Z,97.08
2023-04-25T21:00:51.919Z,93.60
2023-04-25T21:03:18.774Z,94.76
2023-04-25T21:05:46.546Z,94.17
2023-04-25T21:08:13.383Z,92.36
2023-04-25T21:10:40.141Z,93.79
2023-04-25T21:13:06.912Z,92.04
2023-04-25T21:15:33.704Z,90.92
2023-04-25T21:18:00.500Z,88.44
2023-04-25T21:20:27.227Z,88.98
2023-04-25T21:22:54.525Z,86.86
2023-04-25T21:25:25.478Z,86.47
2023-04-25T21:27:52.889Z,86.14
2023-04-25T21:30:23.607Z,88.72
2023-04-25T21:32:51.959Z,89.11
2023-04-25T21:35:20.820Z,88.35
2023-04-25T21:37:47.747Z,88.02
2023-04-25T21:40:14.936Z,87.93
2023-04-25T21:42:45.989Z,87.64
2023-04-25T21:45:13.184Z,88.53
2023-04-25T21:47:39.796Z,90.13
2023-04-25T21:50:07.536Z,90.42
2023-04-25T21:52:35.695Z,92.88
2023-04-25T21:55:02.341Z,90.04
2023-04-25T21:57:29.233Z,87.82
2023-04-25T21:59:56.662Z,89.03
2023-04-25T22:02:23.881Z,86.34
2023-04-25T22:04:51.513Z,84.86
2023-04-25T22:07:18.297Z,83.69
2023-04-25T22:09:54.386Z,84.88
2023-04-25T22:12:22.760Z,84.23
2023-04-25T22:14:50.284Z,83.57
2023-04-25T22:17:20.123Z,83.49
2023-04-25T22:19:47.163Z,83.52
2023-04-25T22:22:14.251Z,83.63
2023-04-25T22:24:41.010Z,84.92
2023-04-25T22:27:07.951Z,84.91
2023-04-25T22:29:35.165Z,85.80
2023-04-25T22:32:02.139Z,85.65
2023-04-25T22:34:28.835Z,85.93
2023-04-25T22:36:55.800Z,86.55
2023-04-25T22:39:23.273Z,88.96
2023-04-25T22:41:49.924Z,90.12
2023-04-25T22:44:16.626Z,89.65
2023-04-25T22:46:43.301Z,90.89
2023-04-25T22:49:10.735Z,91.87
2023-04-25T22:51:37.960Z,90.58
2023-04-25T22:54:05.544Z,91.27
2023-04-25T22:56:35.796Z,92.34
2023-04-25T22:59:02.347Z,92.36
2023-04-25T23:01:29.275Z,92.85
2023-04-25T23:03:56.684Z,93.31
2023-04-25T23:06:24.744Z,93.94
2023-04-25T23:08:51.518Z,95.05
2023-04-25T23:11:18.262Z,95.67
2023-04-25T23:13:45.515Z,94.04
2023-04-25T23:16:12.615Z,96.04
2023-04-25T23:18:40.383Z,95.56
2023-04-25T23:21:09.201Z,97.29
2023-04-25T23:23:36.536Z,97.91
2023-04-25T23:26:10.855Z,96.93
2023-04-25T23:28:40.646Z,97.24
2023-04-25T23:31:10.567Z,97.65
2023-04-25T23:33:37.358Z,98.43
2023-04-25T23:36:04.587Z,99.03
2023-04-25T23:38:32.388Z,96.86
2023-04-25T23:40:59.009Z,97.56
2023-04-25T23:43:25.686Z,96.62
2023-04-25T23:45:54.237Z,98.52
2023-04-25T23:48:21.218Z,96.17
2023-04-25T23:50:48.161Z,98.98
2023-04-25T23:53:14.773Z,97.32
2023-04-25T23:55:41.595Z,99.19
2023-04-25T23:58:08.338Z,100.00
